Time;durP1;ratioP1;P1;durP2;ratioP2;P2;SDS_P1;SDS_P2;PMS_P1;PMS_P2;Temp;Humidity;BMP_temperature;BMP_pressure;BME280_temperature;BME280_humidity;BME280_pressure;Samples;Min_cycle;Max_cycle;Signal;HPM_P1;HPM_P2
2022/06/06 00:02:26;;;;;;;4.60;3.70;;;;;;;19.82;53.17;100488.28;117343;1182;22290;-52
2022/06/06 00:04:53;;;;;;;3.60;3.10;;;;;;;19.78;53.28;100496.65;117381;1183;23528;-52
2022/06/06 00:07:20;;;;;;;4.80;3.40;;;;;;;19.79;53.40;100493.95;117373;1186;21929;-52
2022/06/06 00:09:47;;;;;;;6.30;3.50;;;;;;;19.83;53.43;100494.09;117373;1186;22965;-51
2022/06/06 00:12:15;;;;;;;4.30;3.40;;;;;;;19.87;53.43;100489.45;117401;1185;22822;-51
2022/06/06 00:14:44;;;;;;;4.40;3.00;;;;;;;19.89;53.47;100480.10;117407;1185;22453;-58
2022/06/06 00:17:12;;;;;;;6.10;3.60;;;;;;;19.96;53.28;100471.41;117471;1182;21877;-58
2022/06/06 00:19:40;;;;;;;4.30;3.30;;;;;;;20.03;53.33;100464.10;117453;1185;23541;-52
2022/06/06 00:22:07;;;;;;;4.40;3.60;;;;;;;20.01;53.28;100456.19;117413;1182;22161;-51
2022/06/06 00:24:34;;;;;;;4.40;3.40;;;;;;;20.02;53.44;100454.55;117355;1183;22970;-52
2022/06/06 00:27:01;;;;;;;5.80;4.10;;;;;;;20.04;53.44;100458.02;117289;1189;21903;-51
2022/06/06 00:29:28;;;;;;;3.80;3.20;;;;;;;20.05;53.45;100462.37;117180;1186;24216;-51
2022/06/06 00:34:48;;;;;;;4.30;3.60;;;;;;;20.08;53.40;100463.85;117155;1185;21961;-58
2022/06/06 00:37:24;;;;;;;5.10;3.70;;;;;;;20.10;53.47;100458.03;117379;1184;22961;-51
2022/06/06 00:39:51;;;;;;;4.50;3.70;;;;;;;20.12;53.43;100453.66;117274;1185;22987;-58
2022/06/06 00:42:23;;;;;;;5.40;3.40;;;;;;;20.14;53.37;100457.11;117439;1182;24153;-51
2022/06/06 00:45:25;;;;;;;3.90;3.00;;;;;;;20.16;53.41;100457.92;117359;1185;22918;-52
2022/06/06 00:47:52;;;;;;;4.20;3.50;;;;;;;20.17;53.33;100460.92;117372;1185;23553;-58
2022/06/06 00:50:35;;;;;;;4.10;3.00;;;;;;;20.16;53.33;100460.09;117463;1185;22886;-52
2022/06/06 00:53:03;;;;;;;4.10;3.30;;;;;;;20.14;53.32;100454.60;117148;1184;22635;-58
2022/06/06 00:55:31;;;;;;;5.80;3.20;;;;;;;20.19;53.30;100445.30;117143;1188;21854;-58
2022/06/06 00:58:01;;;;;;;7.00;3.40;;;;;;;20.18;53.29;100440.52;117347;1183;22708;-57
2022/06/06 01:00:28;;;;;;;6.50;3.20;;;;;;;20.11;53.44;100441.27;117353;1182;22889;-52
2022/06/06 01:02:56;;;;;;;3.80;3.30;;;;;;;20.09;53.40;100439.44;117062;1188;22921;-53
2022/06/06 01:05:23;;;;;;;5.10;3.30;;;;;;;20.10;53.41;100445.77;117164;1186;23449;-52
2022/06/06 01:07:50;;;;;;;4.30;3.10;;;;;;;20.08;53.39;100450.49;117176;1185;24145;-53
2022/06/06 01:10:18;;;;;;;7.30;3.40;;;;;;;20.07;53.45;100455.02;117369;1185;21849;-58
2022/06/06 01:12:47;;;;;;;4.20;2.80;;;;;;;20.06;53.49;100454.34;117380;1185;22076;-53
2022/06/06 01:15:15;;;;;;;5.20;2.90;;;;;;;20.04;53.44;100454.40;117365;1184;23538;-52
2022/06/06 01:18:11;;;;;;;3.80;2.80;;;;;;;20.04;53.49;100455.68;117132;1188;21850;-58
2022/06/06 01:21:16;;;;;;;3.30;2.70;;;;;;;20.03;53.49;100446.80;117380;1186;21846;-53
2022/06/06 01:24:09;;;;;;;3.40;2.70;;;;;;;20.04;53.53;100441.61;117311;1185;23024;-53
2022/06/06 01:26:55;;;;;;;3.60;2.80;;;;;;;20.08;53.54;100432.52;117374;1182;21993;-54
2022/06/06 01:29:34;;;;;;;4.70;3.40;;;;;;;20.11;53.48;100428.45;117349;1182;23553;-57
2022/06/06 01:32:02;;;;;;;3.70;2.70;;;;;;;20.13;53.58;100426.19;117416;1184;21849;-53
2022/06/06 01:34:32;;;;;;;4.90;2.90;;;;;;;20.15;53.46;100427.35;117358;1185;22150;-58
2022/06/06 01:36:59;;;;;;;3.70;3.00;;;;;;;20.15;53.47;100432.66;117409;1182;22256;-54
2022/06/06 01:39:27;;;;;;;5.10;2.90;;;;;;;20.15;53.52;100444.08;117353;1184;23595;-57
2022/06/06 01:42:20;;;;;;;4.50;2.80;;;;;;;20.16;53.47;100451.86;117387;1183;22895;-58
2022/06/06 01:45:06;;;;;;;4.90;3.10;;;;;;;20.23;53.34;100461.68;117335;1185;21951;-58
2022/06/06 01:47:44;;;;;;;5.70;2.90;;;;;;;20.19;53.43;100462.21;117331;1183;21973;-52
2022/06/06 01:50:10;;;;;;;3.80;3.00;;;;;;;20.18;53.45;100450.70;117382;1183;23432;-58
2022/06/06 01:53:02;;;;;;;4.80;3.20;;;;;;;20.18;53.47;100441.40;117272;1185;22897;-58
2022/06/06 01:55:30;;;;;;;5.20;2.60;;;;;;;20.20;53.46;100432.61;117414;1185;22924;-58
2022/06/06 01:58:00;;;;;;;4.70;3.20;;;;;;;20.20;53.50;100426.00;117365;1182;22988;-53
2022/06/06 02:00:28;;;;;;;5.00;2.80;;;;;;;20.23;53.42;100424.98;117468;1186;23433;-58
2022/06/06 02:02:55;;;;;;;2.80;2.40;;;;;;;20.22;53.41;100422.69;117375;1183;22926;-53
2022/06/06 02:05:23;;;;;;;4.60;2.60;;;;;;;20.20;53.45;100422.95;117297;1188;21854;-58
2022/06/06 02:07:50;;;;;;;4.10;2.60;;;;;;;20.25;53.47;100424.34;117183;1189;22461;-54
2022/06/06 02:10:17;;;;;;;4.20;3.20;;;;;;;20.25;53.37;100426.98;117329;1183;21897;-59
2022/06/06 02:12:44;;;;;;;3.60;2.80;;;;;;;20.22;53.41;100432.16;117393;1184;22916;-58
2022/06/06 02:15:14;;;;;;;6.20;3.40;;;;;;;20.20;53.42;100434.38;117433;1185;21846;-58
2022/06/06 02:17:40;;;;;;;5.60;3.20;;;;;;;20.20;53.44;100435.94;117384;1185;21840;-58
2022/06/06 02:20:08;;;;;;;5.10;2.70;;;;;;;20.22;53.40;100430.71;117249;1183;22963;-58
2022/06/06 02:22:35;;;;;;;4.10;2.80;;;;;;;20.22;53.49;100430.73;117213;1186;22613;-57
2022/06/06 02:25:03;;;;;;;4.70;3.00;;;;;;;20.21;53.48;100428.60;117268;1185;22898;-58
2022/06/06 02:27:30;;;;;;;4.20;3.30;;;;;;;20.23;53.49;100433.87;117364;1181;22916;-58
2022/06/06 02:29:58;;;;;;;7.40;3.80;;;;;;;20.26;53.41;100435.36;117326;1185;23563;-58
2022/06/06 02:32:25;;;;;;;4.00;3.00;;;;;;;20.27;53.51;100430.80;117180;1188;22909;-54
2022/06/06 02:34:52;;;;;;;4.60;3.50;;;;;;;20.29;53.43;100425.02;117346;1182;23586;-58
2022/06/06 02:37:19;;;;;;;5.20;3.30;;;;;;;20.29;53.44;100423.93;117230;1188;21896;-58
2022/06/06 02:39:46;;;;;;;5.50;2.80;;;;;;;20.30;53.41;100429.27;117396;1182;22972;-54
2022/06/06 02:42:13;;;;;;;4.00;2.70;;;;;;;20.30;53.46;100438.70;117354;1185;23014;-54
2022/06/06 02:44:40;;;;;;;8.30;3.00;;;;;;;20.30;53.41;100444.38;117334;1186;23569;-58
2022/06/06 02:47:07;;;;;;;3.40;2.40;;;;;;;20.33;53.31;100447.25;117259;1185;23439;-58
2022/06/06 02:49:35;;;;;;;3.80;2.60;;;;;;;20.39;53.35;100448.39;117312;1182;22710;-57
2022/06/06 02:52:03;;;;;;;4.60;2.70;;;;;;;20.42;53.30;100447.35;117338;1185;22990;-58
2022/06/06 02:54:30;;;;;;;5.20;2.70;;;;;;;20.43;53.26;100446.20;117381;1183;23006;-58
2022/06/06 02:57:03;;;;;;;4.10;2.70;;;;;;;20.45;53.22;100448.60;117323;1185;21977;-59
2022/06/06 02:59:31;;;;;;;5.90;2.40;;;;;;;20.47;53.17;100453.81;117288;1188;21891;-58
2022/06/06 03:01:58;;;;;;;5.80;2.60;;;;;;;20.48;53.11;100451.27;117358;1185;23550;-58
2022/06/06 03:04:25;;;;;;;4.20;2.60;;;;;;;20.49;53.11;100448.19;117320;1183;23535;-59
2022/06/06 03:07:05;;;;;;;3.60;2.40;;;;;;;20.51;53.08;100453.27;117313;1186;22646;-59
2022/06/06 03:09:44;;;;;;;5.80;2.80;;;;;;;20.53;53.17;100455.16;117312;1182;23435;-55
2022/06/06 03:12:39;;;;;;;5.90;2.90;;;;;;;20.53;53.10;100456.58;117494;1185;22976;-53
2022/06/06 03:15:41;;;;;;;5.00;2.50;;;;;;;20.54;53.08;100456.31;117191;1185;23534;-55
2022/06/06 03:21:36;;;;;;;2.90;2.10;;;;;;;20.59;53.06;100446.61;117195;1188;21977;-54
2022/06/06 03:24:19;;;;;;;2.80;2.20;;;;;;;20.62;53.04;100439.33;117306;1185;21967;-58
2022/06/06 03:27:07;;;;;;;3.90;2.30;;;;;;;20.63;53.01;100441.21;117392;1186;23560;-59
2022/06/06 03:30:07;;;;;;;5.30;2.50;;;;;;;20.67;52.99;100444.98;117271;1185;21823;-55
2022/06/06 03:32:37;;;;;;;7.20;2.70;;;;;;;20.70;52.93;100449.96;117333;1183;23462;-53
2022/06/06 03:35:32;;;;;;;4.90;2.30;;;;;;;20.74;52.96;100451.55;117324;1188;21862;-59
2022/06/06 03:38:05;;;;;;;5.80;2.50;;;;;;;20.78;52.98;100456.15;117343;1182;22829;-55
2022/06/06 03:40:45;;;;;;;4.00;2.30;;;;;;;20.82;52.96;100463.06;117340;1186;21857;-54
2022/06/06 03:43:31;;;;;;;4.70;2.30;;;;;;;20.85;52.97;100463.98;117289;1185;23695;-59
2022/06/06 03:46:02;;;;;;;4.20;2.10;;;;;;;20.88;52.95;100460.81;117301;1183;23657;-54
2022/06/06 03:48:45;;;;;;;2.90;2.40;;;;;;;20.89;52.84;100455.56;117333;1185;22104;-58
2022/06/06 03:51:37;;;;;;;3.70;2.30;;;;;;;20.91;52.85;100450.27;117338;1186;21843;-58
2022/06/06 03:54:04;;;;;;;3.60;2.20;;;;;;;20.93;52.83;100450.34;117306;1183;23105;-53
2022/06/06 03:57:11;;;;;;;3.10;2.20;;;;;;;20.95;52.79;100450.08;117341;1186;21851;-54
2022/06/06 03:59:39;;;;;;;2.90;2.20;;;;;;;21.01;52.75;100447.27;117401;1183;22914;-53
2022/06/06 04:02:07;;;;;;;2.30;1.80;;;;;;;21.06;52.70;100442.16;117415;1186;22916;-54
2022/06/06 04:04:34;;;;;;;3.60;2.00;;;;;;;21.08;52.71;100443.98;117425;1183;23547;-59
2022/06/06 04:07:02;;;;;;;3.60;2.00;;;;;;;21.16;52.59;100447.17;117424;1183;22988;-58
2022/06/06 04:09:30;;;;;;;4.00;2.00;;;;;;;21.20;52.54;100443.34;117396;1182;23436;-59
2022/06/06 04:12:10;;;;;;;3.60;2.10;;;;;;;21.20;52.53;100442.77;117349;1185;21852;-58
2022/06/06 04:14:53;;;;;;;3.20;1.90;;;;;;;21.22;52.57;100445.17;117465;1183;22915;-54
2022/06/06 04:17:42;;;;;;;5.40;2.20;;;;;;;21.25;52.45;100441.47;117326;1183;22938;-58
2022/06/06 04:20:18;;;;;;;3.90;2.20;;;;;;;21.27;52.36;100442.09;117409;1185;24149;-53
2022/06/06 04:23:00;;;;;;;3.70;2.30;;;;;;;21.27;52.30;100448.52;117389;1180;21846;-58
2022/06/06 04:25:45;;;;;;;2.80;2.00;;;;;;;21.27;52.29;100456.02;117153;1185;22917;-58
2022/06/06 04:28:36;;;;;;;2.40;1.80;;;;;;;21.29;52.32;100461.78;117343;1184;23745;-57
2022/06/06 04:31:17;;;;;;;3.20;2.10;;;;;;;21.34;52.30;100463.83;117370;1185;21985;-53
2022/06/06 04:34:09;;;;;;;2.70;2.00;;;;;;;21.41;52.28;100466.13;117451;1186;22985;-55
2022/06/06 04:37:05;;;;;;;3.60;1.90;;;;;;;21.42;52.10;100471.57;117407;1183;22094;-58
2022/06/06 04:40:02;;;;;;;3.30;2.00;;;;;;;21.44;52.18;100478.41;117431;1182;22169;-57
2022/06/06 04:42:44;;;;;;;3.80;2.20;;;;;;;21.46;52.16;100482.04;117346;1185;21963;-53
2022/06/06 04:45:33;;;;;;;3.20;2.20;;;;;;;21.54;52.00;100479.16;117313;1182;21848;-58
2022/06/06 04:48:00;;;;;;;3.20;2.10;;;;;;;21.51;52.08;100482.13;117326;1186;23462;-54
2022/06/06 04:50:27;;;;;;;4.80;2.30;;;;;;;21.50;52.16;100486.49;117045;1185;21920;-57
2022/06/06 04:52:56;;;;;;;3.50;2.10;;;;;;;21.50;52.13;100484.14;117316;1185;21855;-58
2022/06/06 04:55:23;;;;;;;3.10;2.00;;;;;;;21.52;52.12;100483.51;117356;1185;24162;-54
2022/06/06 04:57:52;;;;;;;4.30;2.00;;;;;;;21.53;52.21;100484.69;117169;1185;23004;-55
2022/06/06 05:00:20;;;;;;;2.60;2.00;;;;;;;21.54;52.14;100493.05;117330;1182;22828;-52
2022/06/06 05:02:49;;;;;;;3.30;2.30;;;;;;;21.50;52.07;100494.86;117399;1185;21859;-52
2022/06/06 05:05:16;;;;;;;2.80;2.20;;;;;;;21.46;52.05;100496.52;117234;1186;21928;-57
2022/06/06 05:08:13;;;;;;;3.10;2.10;;;;;;;21.44;52.08;100495.40;117343;1181;22058;-58
2022/06/06 05:11:02;;;;;;;3.10;2.10;;;;;;;21.43;52.07;100494.52;117271;1186;22047;-58
2022/06/06 05:13:51;;;;;;;3.20;2.00;;;;;;;21.44;52.14;100496.27;117273;1185;23589;-53
2022/06/06 05:16:55;;;;;;;2.70;2.10;;;;;;;21.44;52.09;100502.54;117352;1186;21918;-58
2022/06/06 05:19:41;;;;;;;8.50;2.90;;;;;;;21.44;52.14;100503.08;117333;1186;21890;-57
2022/06/06 05:22:25;;;;;;;3.40;1.90;;;;;;;21.49;52.05;100504.02;117313;1186;22629;-53
2022/06/06 05:25:04;;;;;;;2.70;1.90;;;;;;;21.48;52.18;100502.11;117362;1182;21856;-54
2022/06/06 05:27:51;;;;;;;5.30;2.20;;;;;;;21.49;52.06;100499.56;117348;1186;21909;-54
2022/06/06 05:30:20;;;;;;;5.90;2.60;;;;;;;21.47;52.13;100503.80;117376;1183;23560;-58
2022/06/06 05:33:06;;;;;;;4.10;2.10;;;;;;;21.49;52.10;100508.33;117408;1185;21847;-59
2022/06/06 05:35:59;;;;;;;5.00;2.40;;;;;;;21.52;52.17;100511.01;117423;1185;21845;-58
2022/06/06 05:38:45;;;;;;;5.60;2.20;;;;;;;21.60;52.03;100505.91;117448;1186;21838;-58
2022/06/06 05:41:34;;;;;;;2.90;2.20;;;;;;;21.65;51.93;100504.97;117313;1182;22902;-54
2022/06/06 05:44:01;;;;;;;8.10;2.10;;;;;;;21.66;52.02;100508.82;117404;1183;21997;-58
2022/06/06 05:46:43;;;;;;;4.70;2.40;;;;;;;21.61;52.03;100510.50;117420;1185;21852;-58
2022/06/06 05:49:24;;;;;;;3.20;2.10;;;;;;;21.65;51.98;100517.80;117390;1186;21846;-59
2022/06/06 05:52:12;;;;;;;3.50;2.10;;;;;;;21.63;51.98;100520.94;117371;1186;24688;-59
2022/06/06 05:54:39;;;;;;;4.70;2.40;;;;;;;21.58;51.99;100523.71;117391;1186;21894;-59
2022/06/06 05:57:25;;;;;;;4.10;2.90;;;;;;;21.58;52.06;100526.20;117404;1182;22614;-58
2022/06/06 06:00:03;;;;;;;5.20;2.80;;;;;;;21.64;51.96;100529.11;117381;1186;22695;-54
2022/06/06 06:02:53;;;;;;;3.90;2.50;;;;;;;21.66;51.94;100530.59;117418;1183;22912;-58
2022/06/06 06:05:45;;;;;;;5.00;2.60;;;;;;;21.68;51.99;100537.11;117435;1186;21855;-57
2022/06/06 06:08:37;;;;;;;6.50;2.70;;;;;;;21.70;51.94;100538.61;117391;1183;23545;-59
2022/06/06 06:11:18;;;;;;;2.90;2.00;;;;;;;21.71;52.02;100538.02;117391;1186;23592;-55
2022/06/06 06:13:55;;;;;;;3.30;2.40;;;;;;;21.72;52.03;100542.79;117393;1184;22922;-58
2022/06/06 06:16:23;;;;;;;4.00;2.40;;;;;;;21.75;52.09;100544.77;117398;1186;22912;-58
2022/06/06 06:19:11;;;;;;;3.50;2.50;;;;;;;21.78;52.08;100547.26;117395;1185;22920;-59
2022/06/06 06:21:42;;;;;;;3.60;2.20;;;;;;;21.81;52.09;100549.39;117504;1186;23618;-58
2022/06/06 06:24:16;;;;;;;3.00;2.30;;;;;;;21.88;52.06;100550.63;117344;1186;21855;-55
2022/06/06 06:26:44;;;;;;;3.50;2.10;;;;;;;21.93;52.10;100550.33;117429;1183;21840;-57
2022/06/06 06:29:11;;;;;;;3.70;2.50;;;;;;;22.01;52.09;100553.85;117255;1184;21901;-58
2022/06/06 06:32:02;;;;;;;3.70;2.10;;;;;;;22.07;52.10;100559.94;117318;1186;24166;-58
2022/06/06 06:34:52;;;;;;;3.50;2.20;;;;;;;22.11;52.21;100560.41;117366;1186;21866;-58
2022/06/06 06:37:28;;;;;;;5.20;2.20;;;;;;;22.17;52.18;100562.17;117384;1182;23531;-54
2022/06/06 06:40:15;;;;;;;2.70;2.20;;;;;;;22.24;52.17;100562.68;117336;1186;21859;-58
2022/06/06 06:42:51;;;;;;;4.90;2.50;;;;;;;22.34;52.10;100564.10;117310;1183;24148;-58
2022/06/06 06:45:29;;;;;;;5.90;2.50;;;;;;;22.42;52.24;100559.50;117228;1186;21846;-54
2022/06/06 06:48:05;;;;;;;5.00;2.40;;;;;;;22.51;52.15;100558.46;117731;1183;24144;-57
2022/06/06 06:50:50;;;;;;;5.60;2.60;;;;;;;22.59;52.12;100557.48;117376;1186;23574;-55
2022/06/06 06:53:38;;;;;;;5.20;2.40;;;;;;;22.72;52.18;100556.16;117368;1182;23541;-55
2022/06/06 06:56:17;;;;;;;3.40;2.20;;;;;;;22.90;52.06;100554.53;117401;1186;21950;-57
2022/06/06 06:58:55;;;;;;;3.40;1.90;;;;;;;23.08;51.97;100549.32;117400;1182;23542;-57
2022/06/06 07:01:26;;;;;;;3.50;2.20;;;;;;;23.23;51.93;100547.31;117425;1186;21863;-56
2022/06/06 07:10:18;;;;;;;3.10;2.10;;;;;;;23.60;51.49;100543.36;117419;1188;21856;-57
2022/06/06 07:12:49;;;;;;;2.30;1.80;;;;;;;23.69;51.30;100541.75;117362;1183;21969;-54
2022/06/06 07:15:37;;;;;;;7.10;2.00;;;;;;;23.75;51.17;100540.97;117424;1182;22903;-54
2022/06/06 07:18:05;;;;;;;3.40;2.30;;;;;;;23.82;51.15;100546.25;117376;1185;21845;-55
2022/06/06 07:20:33;;;;;;;3.60;2.50;;;;;;;23.87;51.09;100548.41;117367;1182;23675;-56
2022/06/06 07:23:04;;;;;;;4.20;2.00;;;;;;;23.89;51.01;100551.52;117438;1185;23537;-53
2022/06/06 07:25:37;;;;;;;3.40;2.10;;;;;;;23.93;50.99;100554.92;117430;1185;21849;-56
2022/06/06 07:28:07;;;;;;;2.60;1.90;;;;;;;23.96;50.83;100555.95;117410;1186;21836;-54
2022/06/06 07:30:38;;;;;;;4.10;2.20;;;;;;;23.97;50.80;100553.20;117362;1185;21856;-56
2022/06/06 07:33:09;;;;;;;4.80;2.30;;;;;;;23.99;50.88;100550.73;117445;1184;22969;-54
2022/06/06 07:35:40;;;;;;;4.60;2.00;;;;;;;24.06;50.79;100549.56;117469;1185;21860;-53
2022/06/06 07:38:36;;;;;;;4.80;2.10;;;;;;;24.10;50.63;100551.66;117218;1188;23529;-57
2022/06/06 07:41:34;;;;;;;7.00;2.00;;;;;;;24.12;50.76;100555.26;117391;1184;21861;-55
2022/06/06 07:44:04;;;;;;;4.30;2.20;;;;;;;24.19;50.76;100559.30;117390;1186;23563;-53
2022/06/06 07:46:57;;;;;;;6.00;2.10;;;;;;;24.20;50.62;100561.20;117393;1183;23435;-56
2022/06/06 07:49:39;;;;;;;4.20;2.40;;;;;;;24.19;50.66;100564.67;117351;1182;23541;-56
2022/06/06 07:52:22;;;;;;;3.50;2.00;;;;;;;24.19;50.51;100565.21;117300;1182;21875;-56
2022/06/06 07:54:59;;;;;;;5.10;1.90;;;;;;;24.30;50.51;100566.80;117329;1182;22918;-54
2022/06/06 07:58:02;;;;;;;5.60;2.60;;;;;;;24.38;50.37;100569.48;117425;1183;21857;-57
2022/06/06 08:00:28;;;;;;;3.80;1.90;;;;;;;24.45;50.19;100572.08;117422;1184;24255;-53
2022/06/06 08:02:56;;;;;;;2.20;2.00;;;;;;;24.49;50.13;100568.41;117462;1186;21846;-54
2022/06/06 08:05:42;;;;;;;6.00;2.00;;;;;;;24.51;50.12;100569.36;117393;1184;21897;-56
2022/06/06 08:08:14;;;;;;;3.80;2.10;;;;;;;24.52;50.05;100568.77;117380;1182;21842;-54
2022/06/06 08:10:44;;;;;;;7.00;1.70;;;;;;;24.52;50.19;100570.89;117402;1186;21849;-53
2022/06/06 08:13:30;;;;;;;5.70;1.90;;;;;;;24.59;50.03;100575.25;117405;1185;21859;-53
2022/06/06 08:16:04;;;;;;;3.50;2.10;;;;;;;24.66;49.94;100580.54;117411;1183;22913;-54
2022/06/06 08:18:50;;;;;;;3.70;2.00;;;;;;;24.77;49.78;100583.58;117413;1185;22895;-54
2022/06/06 08:21:44;;;;;;;2.70;1.90;;;;;;;24.90;49.74;100583.23;117449;1186;23560;-57
2022/06/06 08:24:39;;;;;;;3.00;1.90;;;;;;;25.02;49.72;100580.25;117412;1184;23033;-57
2022/06/06 08:27:15;;;;;;;3.30;1.80;;;;;;;25.16;49.69;100574.63;117363;1188;22094;-54
2022/06/06 08:29:43;;;;;;;7.10;1.80;;;;;;;25.27;49.73;100571.15;117554;1183;23689;-55
2022/06/06 08:32:10;;;;;;;5.20;1.80;;;;;;;25.40;49.63;100571.31;117453;1183;23468;-56
2022/06/06 08:34:38;;;;;;;5.20;2.20;;;;;;;25.53;49.45;100570.40;117386;1186;22629;-56
2022/06/06 08:37:37;;;;;;;2.90;1.50;;;;;;;25.73;49.52;100568.80;117323;1186;22969;-57
2022/06/06 08:40:26;;;;;;;5.10;1.90;;;;;;;26.06;49.75;100563.33;117282;1186;23573;-54
2022/06/06 08:43:03;;;;;;;3.50;1.70;;;;;;;26.45;49.65;100561.33;117170;1183;21963;-53
2022/06/06 08:45:30;;;;;;;3.00;1.70;;;;;;;26.82;49.47;100560.80;117390;1182;21848;-54
2022/06/06 08:48:38;;;;;;;3.00;1.40;;;;;;;27.16;49.18;100562.54;117317;1183;22050;-52
2022/06/06 08:51:26;;;;;;;3.00;1.40;;;;;;;27.51;48.99;100564.27;117402;1183;22809;-55
2022/06/06 08:54:19;;;;;;;1.50;1.20;;;;;;;27.79;48.44;100564.02;117341;1185;21847;-56
2022/06/06 08:57:07;;;;;;;1.60;1.30;;;;;;;27.96;48.02;100562.04;117323;1185;22896;-57
2022/06/06 09:00:01;;;;;;;2.20;1.30;;;;;;;28.13;47.87;100560.89;117366;1186;23679;-54
2022/06/06 09:02:40;;;;;;;1.90;1.30;;;;;;;28.28;47.63;100562.86;117333;1183;22639;-54
2022/06/06 09:05:47;;;;;;;5.30;1.50;;;;;;;28.39;47.50;100558.88;117328;1185;21869;-56
2022/06/06 09:08:52;;;;;;;3.70;1.40;;;;;;;28.46;47.04;100556.85;117182;1183;23537;-53
2022/06/06 09:11:49;;;;;;;3.80;1.30;;;;;;;28.45;46.91;100559.23;117368;1186;23541;-56
2022/06/06 09:14:38;;;;;;;3.10;1.30;;;;;;;28.44;46.65;100564.61;117408;1183;22411;-54
2022/06/06 09:17:26;;;;;;;3.40;1.20;;;;;;;28.47;46.81;100569.05;117300;1185;22611;-54
2022/06/06 09:20:08;;;;;;;1.80;1.30;;;;;;;28.58;46.99;100572.21;117121;1185;23487;-55
2022/06/06 09:23:02;;;;;;;4.10;1.50;;;;;;;28.81;46.68;100570.88;117295;1185;22905;-56
2022/06/06 09:25:37;;;;;;;2.10;1.20;;;;;;;28.99;46.33;100568.73;117214;1186;22913;-54
2022/06/06 09:28:26;;;;;;;3.60;1.30;;;;;;;29.08;46.07;100569.09;118209;1185;22905;-56
2022/06/06 09:31:17;;;;;;;2.00;1.30;;;;;;;29.08;45.73;100565.45;117391;1186;22620;-53
2022/06/06 09:34:12;;;;;;;3.40;1.30;;;;;;;29.07;45.32;100571.12;117369;1186;21850;-55
2022/06/06 09:37:01;;;;;;;3.00;1.10;;;;;;;29.04;45.30;100576.43;117314;1186;24025;-57
2022/06/06 09:39:31;;;;;;;2.50;1.20;;;;;;;29.06;45.23;100575.93;117418;1181;23563;-56
2022/06/06 09:42:03;;;;;;;1.30;1.10;;;;;;;29.09;45.00;100575.49;117313;1185;21908;-58
2022/06/06 09:44:45;;;;;;;1.80;1.10;;;;;;;29.12;45.00;100571.80;117197;1183;24274;-54
2022/06/06 09:47:34;;;;;;;2.70;1.30;;;;;;;29.09;44.73;100568.77;117377;1185;23225;-54
2022/06/06 09:50:33;;;;;;;5.50;1.40;;;;;;;29.14;44.52;100573.77;117454;1182;23625;-54
2022/06/06 09:53:16;;;;;;;5.10;1.00;;;;;;;29.14;44.48;100572.54;117419;1185;22894;-52
2022/06/06 09:59:04;;;;;;;3.90;1.40;;;;;;;28.94;43.90;100575.00;117390;1186;22088;-54
2022/06/06 10:02:04;;;;;;;2.30;1.10;;;;;;;28.77;43.75;100578.02;117461;1182;23423;-57
2022/06/06 10:04:40;;;;;;;2.50;1.20;;;;;;;28.55;43.59;100580.82;117356;1186;21835;-57
2022/06/06 10:07:46;;;;;;;3.80;1.20;;;;;;;28.42;43.72;100581.19;117307;1184;21928;-55
2022/06/06 10:10:26;;;;;;;2.70;1.10;;;;;;;28.44;43.66;100579.06;117280;1185;22613;-57
2022/06/06 10:13:06;;;;;;;3.00;1.50;;;;;;;28.47;43.70;100575.90;117321;1182;23558;-54
2022/06/06 10:16:03;;;;;;;3.70;1.20;;;;;;;28.50;43.46;100572.17;117370;1185;22985;-58
2022/06/06 10:18:39;;;;;;;3.60;1.30;;;;;;;28.53;43.44;100564.22;117363;1186;21873;-57
2022/06/06 10:21:14;;;;;;;2.30;1.10;;;;;;;28.51;43.36;100556.76;117394;1181;21863;-57
2022/06/06 10:23:50;;;;;;;1.90;1.10;;;;;;;28.53;43.15;100548.66;117546;1186;21849;-53
2022/06/06 10:26:32;;;;;;;4.80;1.10;;;;;;;28.51;43.02;100549.70;117166;1186;23468;-55
2022/06/06 10:29:12;;;;;;;2.70;1.10;;;;;;;28.48;42.93;100556.47;117316;1186;22081;-53
2022/06/06 10:32:02;;;;;;;3.70;1.20;;;;;;;28.54;43.07;100555.98;117327;1186;23552;-55
2022/06/06 10:34:47;;;;;;;4.00;1.30;;;;;;;28.66;43.05;100554.48;117339;1186;21846;-53
2022/06/06 10:37:35;;;;;;;3.30;1.30;;;;;;;28.76;42.98;100554.29;117310;1186;22643;-53
2022/06/06 10:40:44;;;;;;;1.40;0.80;;;;;;;28.86;42.67;100551.70;117384;1182;23509;-55
2022/06/06 10:43:13;;;;;;;4.90;0.90;;;;;;;28.94;42.60;100550.94;117263;1180;22613;-56
2022/06/06 10:45:46;;;;;;;3.10;0.90;;;;;;;29.09;42.57;100550.56;117392;1186;22916;-54
2022/06/06 10:48:23;;;;;;;2.80;1.00;;;;;;;29.25;42.50;100551.70;117342;1185;21849;-54
2022/06/06 10:54:01;;;;;;;1.30;1.00;;;;;;;29.65;42.12;100551.97;117377;1184;22935;-56
2022/06/06 10:56:40;;;;;;;2.10;1.00;;;;;;;29.88;42.30;100542.46;117438;1183;23563;-54
2022/06/06 10:59:10;;;;;;;1.50;0.90;;;;;;;30.07;41.92;100540.41;117363;1185;21850;-56
2022/06/06 11:02:01;;;;;;;4.40;1.00;;;;;;;30.20;41.70;100538.71;117340;1183;23443;-55
2022/06/06 11:04:35;;;;;;;3.10;1.00;;;;;;;30.32;41.34;100541.55;117290;1185;24123;-56
2022/06/06 11:07:25;;;;;;;1.50;0.90;;;;;;;30.41;41.05;100540.88;117377;1185;23392;-56
2022/06/06 11:10:08;;;;;;;2.30;0.90;;;;;;;30.49;40.83;100534.73;117139;1182;22616;-54
2022/06/06 11:13:11;;;;;;;2.80;1.20;;;;;;;30.47;40.63;100534.93;117294;1182;24156;-56
2022/06/06 11:15:57;;;;;;;2.00;1.00;;;;;;;30.55;40.83;100532.34;117302;1186;22909;-54
2022/06/06 11:18:45;;;;;;;2.40;1.10;;;;;;;30.64;40.65;100524.61;117138;1188;22906;-54
2022/06/06 11:21:27;;;;;;;2.00;1.00;;;;;;;30.71;40.58;100519.41;117338;1185;22973;-53
2022/06/06 11:24:23;;;;;;;2.40;1.00;;;;;;;30.80;40.34;100519.70;117414;1185;23582;-52
2022/06/06 11:27:20;;;;;;;1.60;1.10;;;;;;;30.89;40.07;100512.70;117415;1182;21869;-53
2022/06/06 11:29:56;;;;;;;2.40;0.90;;;;;;;30.92;39.99;100506.25;117399;1183;23423;-54
2022/06/06 11:33:00;;;;;;;3.20;1.50;;;;;;;30.95;39.94;100496.81;117382;1186;22631;-54
2022/06/06 11:36:08;;;;;;;3.20;1.20;;;;;;;31.05;39.65;100492.67;117527;1186;22955;-53
2022/06/06 11:39:09;;;;;;;1.80;0.90;;;;;;;31.14;39.46;100492.14;117300;1185;21861;-55
2022/06/06 11:41:50;;;;;;;2.10;0.80;;;;;;;31.22;39.20;100484.73;117432;1184;22969;-56
2022/06/06 11:44:29;;;;;;;3.30;1.00;;;;;;;31.23;39.18;100485.89;117376;1182;22941;-55
2022/06/06 11:47:03;;;;;;;3.40;1.30;;;;;;;31.32;38.92;100488.21;117298;1182;23807;-56
2022/06/06 11:50:25;;;;;;;1.50;0.90;;;;;;;31.36;38.86;100490.59;117372;1185;21849;-54
2022/06/06 11:53:31;;;;;;;2.30;1.10;;;;;;;31.40;38.86;100491.22;116935;1186;24175;-54
2022/06/06 11:56:29;;;;;;;2.90;1.00;;;;;;;31.43;38.78;100490.42;117433;1183;22921;-52
2022/06/06 11:59:15;;;;;;;5.60;1.20;;;;;;;31.49;38.58;100487.45;117382;1186;22915;-53
2022/06/06 12:02:01;;;;;;;3.60;0.90;;;;;;;31.57;38.55;100491.88;117360;1185;24262;-55
2022/06/06 12:04:43;;;;;;;4.50;1.10;;;;;;;31.63;38.52;100487.69;117384;1186;22890;-54
2022/06/06 12:07:41;;;;;;;4.40;1.60;;;;;;;31.62;38.32;100485.98;117345;1185;21886;-55
2022/06/06 12:10:24;;;;;;;7.50;2.30;;;;;;;31.62;38.32;100483.84;117393;1182;23432;-54
2022/06/06 12:13:16;;;;;;;4.10;1.30;;;;;;;31.71;38.33;100478.72;117365;1185;22642;-55
2022/06/06 12:15:57;;;;;;;2.90;1.20;;;;;;;31.85;38.15;100478.30;117512;1182;23541;-53
2022/06/06 12:18:37;;;;;;;5.80;1.30;;;;;;;31.94;38.01;100478.15;117318;1184;24756;-55
2022/06/06 12:21:23;;;;;;;3.60;1.10;;;;;;;31.89;38.07;100475.19;117411;1186;21853;-54
2022/06/06 12:24:12;;;;;;;4.40;1.10;;;;;;;31.92;38.00;100472.18;117323;1186;22726;-54
2022/06/06 12:26:45;;;;;;;2.90;1.30;;;;;;;31.93;37.88;100472.29;117352;1186;22801;-53
2022/06/06 12:29:49;;;;;;;4.40;1.60;;;;;;;31.92;37.64;100472.39;117305;1185;22639;-57
2022/06/06 12:32:35;;;;;;;2.40;1.10;;;;;;;31.87;37.50;100467.61;117330;1182;23484;-53
2022/06/06 12:35:26;;;;;;;1.90;1.20;;;;;;;31.84;37.42;100465.52;117307;1185;22639;-56